Time;durP1;ratioP1;P1;durP2;ratioP2;P2;SDS_P1;SDS_P2;PMS_P1;PMS_P2;Temp;Humidity;BMP_temperature;BMP_pressure;BME280_temperature;BME280_humidity;BME280_pressure;Samples;Min_cycle;Max_cycle;Signal;HPM_P1;HPM_P2
2023/11/24 06:06:33;;;;;;;6.60;2.97;;;;;;;6.72;89.05;96147.31;5361976;23;20299;-80
2023/11/24 06:09:07;;;;;;;6.35;2.00;;;;;;;6.70;88.90;96136.31;4886783;29;20049;-80
2023/11/24 06:11:56;;;;;;;5.72;1.70;;;;;;;6.68;89.19;96123.50;4885396;29;20033;-80
2023/11/24 06:17:23;;;;;;;3.33;1.70;;;;;;;6.67;88.68;96108.13;5279494;23;20041;-79
2023/11/24 06:20:11;;;;;;;;;;;;;;;6.67;89.06;96108.13;4884445;29;20073;-79
2023/11/24 06:23:04;;;;;;;4.85;1.60;;;;;;;6.60;88.69;96103.63;4886474;29;19916;-80
2023/11/24 06:26:12;;;;;;;4.88;1.70;;;;;;;6.58;87.88;96104.75;4892043;23;20136;-80
2023/11/24 06:31:38;;;;;;;3.78;1.50;;;;;;;6.54;87.10;96104.28;5700393;23;20054;-82
2023/11/24 06:45:25;;;;;;;5.17;2.07;;;;;;;6.53;86.36;96112.22;5451893;23;20293;-80
2023/11/24 06:59:16;;;;;;;4.37;1.67;;;;;;;6.50;86.65;96108.19;5603681;23;20103;-80
2023/11/24 07:02:39;;;;;;;6.90;1.92;;;;;;;6.51;85.95;96117.56;4869905;29;20296;-81
2023/11/24 07:13:12;;;;;;;4.37;2.00;;;;;;;6.51;85.95;96112.38;5582184;23;20056;-80
2023/11/24 07:15:50;;;;;;;5.57;2.10;;;;;;;6.51;85.76;96103.81;4852566;29;20067;-80
2023/11/24 19:20:10;;;;;;;7.55;2.58;;;;;;;3.46;81.69;95706.34;5622973;23;20293;-81
2023/11/24 19:22:38;;;;;;;6.68;2.60;;;;;;;3.47;82.34;95695.03;4864909;29;20062;-82
2023/11/24 19:25:06;;;;;;;5.30;2.40;;;;;;;3.48;82.40;95704.41;4866813;29;20077;-81
2023/11/24 19:27:35;;;;;;;6.15;2.15;;;;;;;3.50;81.88;95705.84;4867109;29;20050;-82
2023/11/24 19:30:03;;;;;;;2.72;2.33;;;;;;;3.52;82.69;95708.28;4867656;29;20060;-81
2023/11/24 19:32:31;;;;;;;4.82;1.85;;;;;;;3.55;83.00;95707.94;4868166;29;20105;-82
2023/11/24 19:34:59;;;;;;;6.05;1.80;;;;;;;3.58;83.08;95706.81;4868123;29;20113;-81
2023/11/24 19:37:28;;;;;;;7.18;1.70;;;;;;;3.59;82.85;95706.66;4866066;29;20113;-81
2023/11/24 19:39:56;;;;;;;5.25;1.90;;;;;;;3.61;82.57;95702.16;4866483;29;20481;-82
2023/11/24 19:42:23;;;;;;;4.65;1.88;;;;;;;3.62;82.51;95711.50;4867178;29;20080;-81
2023/11/24 19:44:51;;;;;;;5.15;1.60;;;;;;;3.64;81.76;95721.66;4866987;29;20129;-81
2023/11/24 19:47:19;;;;;;;3.33;1.20;;;;;;;3.64;81.58;95717.28;4866502;29;20486;-81
2023/11/24 19:49:47;;;;;;;8.15;1.42;;;;;;;3.66;81.62;95723.09;4866369;29;20149;-81
2023/11/24 19:52:15;;;;;;;2.63;1.40;;;;;;;3.66;81.73;95723.09;4867193;29;20053;-82
2023/11/24 19:54:44;;;;;;;3.75;2.33;;;;;;;3.66;81.27;95719.72;4866668;29;20049;-81
2023/11/24 19:57:12;;;;;;;5.32;1.90;;;;;;;3.68;82.12;95716.00;4868296;29;20080;-82
2023/11/24 19:59:40;;;;;;;4.47;1.80;;;;;;;3.70;82.84;95724.41;4845361;29;20087;-82
2023/11/24 20:02:08;;;;;;;4.97;2.00;;;;;;;3.72;82.90;95719.88;4866847;29;20064;-81
2023/11/24 20:04:36;;;;;;;4.82;2.28;;;;;;;3.74;83.49;95714.56;4866795;29;20477;-80
2023/11/24 20:07:04;;;;;;;6.25;3.28;;;;;;;3.76;82.18;95725.53;4866236;29;20132;-80
2023/11/24 20:09:31;;;;;;;6.40;2.35;;;;;;;3.76;81.59;95717.81;4866391;29;20045;-80
2023/11/24 20:12:01;;;;;;;3.40;2.60;;;;;;;3.78;81.19;95712.47;4863858;29;20053;-81
2023/11/24 20:14:28;;;;;;;2.50;2.08;;;;;;;3.80;81.57;95720.84;4863390;29;20097;-78
2023/11/24 20:16:56;;;;;;;3.00;1.77;;;;;;;3.81;81.80;95720.69;4864735;29;20068;-82
2023/11/24 20:19:24;;;;;;;5.00;2.30;;;;;;;3.80;80.61;95729.38;4861402;29;20100;-80
2023/11/24 20:21:52;;;;;;;3.35;1.48;;;;;;;3.78;80.88;95712.47;4858023;29;20061;-81
2023/11/24 20:24:19;;;;;;;7.00;1.75;;;;;;;3.79;80.85;95716.66;4874190;29;20045;-82
2023/11/24 20:26:47;;;;;;;4.90;1.48;;;;;;;3.77;80.14;95721.19;4858155;29;20049;-82
2023/11/24 20:29:17;;;;;;;5.10;1.77;;;;;;;3.75;80.78;95710.22;4857447;29;20141;-80
2023/11/24 20:31:47;;;;;;;;;;;;;;;3.81;82.01;95714.75;4860924;29;20084;-82
2023/11/24 20:34:15;;;;;;;7.60;2.30;;;;;;;3.80;80.78;95702.78;4866947;29;20026;-80
2023/11/24 20:36:46;;;;;;;3.45;1.30;;;;;;;3.76;80.07;95701.50;4869833;29;20046;-79
2023/11/24 20:39:15;;;;;;;3.13;1.17;;;;;;;3.75;79.75;95707.63;4876483;29;20049;-79
2023/11/24 20:41:44;;;;;;;6.57;1.58;;;;;;;3.74;79.78;95699.09;4864753;29;20054;-79
2023/11/24 20:44:13;;;;;;;3.83;1.50;;;;;;;3.74;80.55;95703.44;4863050;29;20113;-79
2023/11/24 20:46:43;;;;;;;3.50;1.40;;;;;;;3.73;81.22;95692.31;4847954;29;20426;-80
2023/11/24 20:49:11;;;;;;;4.00;1.42;;;;;;;3.74;80.61;95698.28;4861002;29;20076;-80
2023/11/24 20:51:41;;;;;;;2.70;1.20;;;;;;;3.73;80.71;95697.47;4856455;29;20054;-81
2023/11/24 20:54:10;;;;;;;1.55;1.13;;;;;;;3.71;80.41;95696.81;4852818;29;20111;-82
2023/11/24 20:56:39;;;;;;;5.85;1.10;;;;;;;3.69;79.49;95691.81;4852318;29;20056;-82
2023/11/24 20:59:07;;;;;;;2.05;1.08;;;;;;;3.69;79.66;95684.09;4852114;29;20082;-82
2023/11/24 21:01:36;;;;;;;3.55;1.10;;;;;;;3.70;80.48;95688.28;4854195;29;20061;-82
2023/11/24 21:04:07;;;;;;;2.85;1.50;;;;;;;3.68;80.43;95690.22;4853221;29;20053;-81
2023/11/24 21:06:35;;;;;;;7.22;1.77;;;;;;;3.69;80.52;95680.72;4853026;29;20552;-82
2023/11/24 21:09:10;;;;;;;6.60;2.08;;;;;;;3.68;80.86;95679.91;4852661;29;20041;-82
2023/11/24 21:11:38;;;;;;;3.42;1.63;;;;;;;3.68;81.78;95679.91;4850121;29;20065;-81
2023/11/24 21:14:07;;;;;;;4.95;1.65;;;;;;;3.69;81.83;95684.09;4850035;29;20061;-81
2023/11/24 21:16:35;;;;;;;4.13;2.08;;;;;;;3.68;81.69;95677.31;4849684;29;20115;-82
2023/11/24 21:19:04;;;;;;;3.10;1.50;;;;;;;3.69;82.59;95666.03;4850102;29;20584;-82
2023/11/24 21:21:33;;;;;;;2.53;1.80;;;;;;;3.68;82.95;95664.44;4849901;29;20136;-82
2023/11/24 21:24:01;;;;;;;3.20;1.90;;;;;;;3.68;82.57;95659.28;4850228;29;20050;-82
2023/11/24 21:26:29;;;;;;;2.70;1.60;;;;;;;3.69;82.46;95662.66;4851244;29;20066;-82
2023/11/24 21:28:57;;;;;;;3.28;1.70;;;;;;;3.69;82.05;95670.38;4851401;29;20053;-82
2023/11/24 21:31:25;;;;;;;2.58;1.67;;;;;;;3.65;81.97;95669.09;4850928;29;20057;-82
2023/11/24 21:33:53;;;;;;;2.83;1.48;;;;;;;3.62;82.18;95667.66;4850967;29;20050;-81
2023/11/24 21:36:21;;;;;;;2.78;1.50;;;;;;;3.58;81.78;95668.94;4850951;29;20058;-81
2023/11/24 21:38:50;;;;;;;5.53;1.42;;;;;;;3.58;82.13;95676.66;4851764;29;20080;-82
2023/11/24 21:41:19;;;;;;;3.05;1.38;;;;;;;3.57;82.75;95677.66;4850708;29;20077;-82
2023/11/24 21:43:47;;;;;;;4.63;1.35;;;;;;;3.53;82.19;95678.94;4850341;29;20055;-82
2023/11/24 21:46:18;;;;;;;5.28;1.52;;;;;;;3.52;82.72;95674.75;4850795;29;20054;-82
2023/11/24 21:48:46;;;;;;;3.10;1.23;;;;;;;3.51;82.36;95663.63;4852065;29;20068;-82
2023/11/24 21:51:16;;;;;;;2.75;1.95;;;;;;;3.51;82.36;95662.81;4854478;29;20432;-81
2023/11/24 21:53:44;;;;;;;1.75;1.40;;;;;;;3.50;82.78;95667.19;4868526;29;20034;-81
2023/11/24 21:56:23;;;;;;;4.70;2.00;;;;;;;3.52;84.10;95669.59;4868752;29;20208;-81
2023/11/24 21:58:52;;;;;;;3.92;1.98;;;;;;;3.51;83.94;95661.03;4868374;29;20052;-82
2023/11/24 22:01:20;;;;;;;4.50;1.60;;;;;;;3.50;83.75;95674.91;4861893;29;20075;-82
2023/11/24 22:03:48;;;;;;;4.30;1.83;;;;;;;3.51;83.32;95667.97;4856928;29;20058;-82
2023/11/24 22:06:21;;;;;;;5.35;1.80;;;;;;;3.51;82.90;95667.97;4854524;29;20117;-82
2023/11/24 22:08:49;;;;;;;4.25;1.55;;;;;;;3.50;82.37;95664.59;4853360;29;20046;-82
2023/11/24 22:11:19;;;;;;;4.57;1.58;;;;;;;3.50;82.08;95651.72;4850624;29;20054;-81
2023/11/24 22:13:47;;;;;;;5.35;2.30;;;;;;;3.52;82.33;95654.13;4851940;29;20054;-81
2023/11/24 22:16:15;;;;;;;7.32;2.13;;;;;;;3.52;82.81;95656.72;4851447;29;20054;-81
2023/11/24 22:18:45;;;;;;;3.90;2.20;;;;;;;3.55;83.02;95658.94;4850293;29;20049;-81
2023/11/24 22:21:17;;;;;;;3.25;1.95;;;;;;;3.56;82.15;95654.59;4849867;29;20066;-82
2023/11/24 22:23:44;;;;;;;3.10;1.65;;;;;;;3.55;81.95;95643.47;4850502;29;20401;-82
2023/11/24 22:26:16;;;;;;;2.90;1.58;;;;;;;3.57;82.98;95625.28;4850030;29;20082;-82
2023/11/24 22:28:49;;;;;;;4.43;1.58;;;;;;;3.58;82.61;95619.94;4850040;29;20097;-81
2023/11/24 22:31:17;;;;;;;4.43;1.70;;;;;;;3.60;82.78;95630.91;4849691;29;20058;-82
2023/11/24 22:33:48;;;;;;;3.10;1.20;;;;;;;3.61;82.51;95627.38;4849829;29;20068;-82
2023/11/24 22:36:19;;;;;;;2.40;1.45;;;;;;;3.60;83.47;95643.78;4849957;29;20118;-82
2023/11/24 22:38:48;;;;;;;3.60;1.52;;;;;;;3.59;82.75;95643.97;4850019;29;20080;-82
2023/11/24 22:41:17;;;;;;;3.47;1.60;;;;;;;3.56;82.41;95645.09;4849644;29;20326;-82
2023/11/24 22:43:45;;;;;;;4.13;1.42;;;;;;;3.53;82.55;95645.41;4849867;29;20050;-82
2023/11/24 22:46:20;;;;;;;2.83;1.27;;;;;;;3.51;82.81;95648.16;4849475;29;20060;-82
2023/11/24 22:48:49;;;;;;;4.65;1.40;;;;;;;3.48;82.20;95648.47;4849415;29;20058;-81
2023/11/24 22:51:18;;;;;;;1.60;1.45;;;;;;;3.46;82.21;95644.47;4849256;29;20050;-81
2023/11/24 22:53:46;;;;;;;1.75;1.30;;;;;;;3.44;82.27;95636.06;4849259;29;20062;-82
2023/11/24 22:56:18;;;;;;;3.33;1.50;;;;;;;3.42;81.98;95627.69;4848772;29;20053;-82
2023/11/24 22:58:47;;;;;;;2.43;1.07;;;;;;;3.41;82.00;95626.06;4848559;29;20087;-81
2023/11/24 23:01:19;;;;;;;4.97;1.42;;;;;;;3.40;82.55;95619.31;4849533;29;20065;-82
2023/11/24 23:03:49;;;;;;;4.70;1.60;;;;;;;3.40;81.78;95614.16;4848498;29;20087;-81
2023/11/24 23:06:18;;;;;;;3.67;1.15;;;;;;;3.39;81.76;95607.38;4848778;29;20065;-82
2023/11/24 23:08:47;;;;;;;2.63;1.35;;;;;;;3.41;82.24;95600.28;4848240;29;20107;-81
2023/11/24 23:11:16;;;;;;;3.35;1.92;;;;;;;3.40;82.20;95603.84;4854484;29;20045;-81
2023/11/24 23:13:48;;;;;;;3.30;1.33;;;;;;;3.42;82.17;95604.50;4867607;29;20030;-81
2023/11/24 23:16:18;;;;;;;1.33;1.10;;;;;;;3.45;82.07;95596.41;4867618;29;20101;-79
2023/11/24 23:18:47;;;;;;;5.65;1.40;;;;;;;3.46;82.20;95588.53;4866969;29;20038;-82
2023/11/24 23:21:18;;;;;;;2.50;1.33;;;;;;;3.48;81.46;95589.19;4859535;29;20054;-80
2023/11/24 23:23:51;;;;;;;1.40;1.30;;;;;;;3.49;81.33;95585.63;4853531;29;20084;-81
2023/11/24 23:26:19;;;;;;;4.57;1.17;;;;;;;3.51;81.61;95601.75;4853034;29;20096;-82
2023/11/24 23:28:47;;;;;;;2.40;0.80;;;;;;;3.50;80.91;95596.75;4851353;29;20504;-81
2023/11/24 23:31:16;;;;;;;2.80;0.80;;;;;;;3.48;80.98;95596.13;4850424;29;20081;-81
2023/11/24 23:33:45;;;;;;;1.20;1.02;;;;;;;3.44;80.44;95600.78;4849492;29;20057;-81
2023/11/24 23:36:46;;;;;;;6.32;1.20;;;;;;;3.37;80.75;95594.66;4849484;29;20053;-82
2023/11/24 23:39:15;;;;;;;2.50;1.02;;;;;;;3.30;81.29;95594.50;4849557;29;20476;-82
2023/11/24 23:41:43;;;;;;;3.78;1.00;;;;;;;3.27;81.69;95588.84;4847993;29;20053;-82
2023/11/24 23:44:11;;;;;;;1.42;0.93;;;;;;;3.27;82.17;95599.16;4848157;29;20054;-82
2023/11/24 23:46:38;;;;;;;2.65;1.05;;;;;;;3.20;82.11;95593.06;4847544;29;20054;-81
2023/11/24 23:49:08;;;;;;;1.52;1.30;;;;;;;3.17;82.88;95573.56;4847922;29;20092;-81
2023/11/24 23:51:36;;;;;;;4.03;1.00;;;;;;;3.15;82.95;95567.78;4847744;29;20046;-81
2023/11/24 23:54:08;;;;;;;6.45;1.77;;;;;;;3.13;83.12;95572.28;4847613;29;20077;-82
2023/11/24 23:56:36;;;;;;;3.20;0.90;;;;;;;3.14;83.92;95575.66;4847374;29;20109;-81
2023/11/24 23:59:08;;;;;;;2.20;0.85;;;;;;;3.15;84.06;95580.66;4846777;29;20079;-82
